createdAt,value
2018-04-26T00:00:56.712Z,78.69
2018-04-26T00:01:56.708Z,78.98
2018-04-26T00:02:56.701Z,78.78
2018-04-26T00:03:56.697Z,79.07
2018-04-26T00:04:56.694Z,78.88
2018-04-26T00:05:56.690Z,78.69
2018-04-26T00:06:56.681Z,79.46
2018-04-26T00:07:56.675Z,79.36
2018-04-26T00:08:56.676Z,79.27
2018-04-26T00:09:56.671Z,78.78
2018-04-26T00:10:56.658Z,79.17
2018-04-26T00:11:56.653Z,79.36
2018-04-26T00:12:56.647Z,79.64
2018-04-26T00:13:56.641Z,79.46
2018-04-26T00:14:56.636Z,79.46
2018-04-26T00:15:56.630Z,79.36
2018-04-26T00:16:56.630Z,79.27
2018-04-26T00:17:56.624Z,79.36
2018-04-26T00:18:56.618Z,79.64
2018-04-26T00:19:56.619Z,79.46
2018-04-26T00:20:56.602Z,79.46
2018-04-26T00:21:56.596Z,79.46
2018-04-26T00:22:56.592Z,79.46
2018-04-26T00:23:56.586Z,79.64
2018-04-26T00:24:56.582Z,79.83
2018-04-26T00:25:56.576Z,79.64
2018-04-26T00:26:56.569Z,79.64
2018-04-26T00:27:56.566Z,79.17
2018-04-26T00:28:56.558Z,79.36
2018-04-26T00:29:56.556Z,79.64
2018-04-26T00:30:56.551Z,79.36
2018-04-26T00:31:56.549Z,79.36
2018-04-26T00:32:56.535Z,79.55
2018-04-26T00:33:56.531Z,79.36
2018-04-26T00:34:56.526Z,79.30
2018-04-26T00:35:56.564Z,79.46
2018-04-26T00:36:56.519Z,79.74
2018-04-26T00:37:56.513Z,79.55
2018-04-26T00:38:56.504Z,79.74
2018-04-26T00:39:56.499Z,79.36
2018-04-26T00:40:56.491Z,79.46
2018-04-26T00:41:56.491Z,79.64
2018-04-26T00:42:56.481Z,79.46
2018-04-26T00:43:56.476Z,79.46
2018-04-26T00:44:56.470Z,79.93
2018-04-26T00:45:56.464Z,79.46
2018-04-26T00:46:56.461Z,79.97
2018-04-26T00:47:56.468Z,79.64
2018-04-26T00:48:56.452Z,79.11
2018-04-26T00:49:56.447Z,79.59
2018-04-26T00:50:56.443Z,79.97
2018-04-26T00:51:56.437Z,79.30
2018-04-26T00:52:56.428Z,79.02
2018-04-26T00:53:56.423Z,78.83
2018-04-26T00:54:56.417Z,78.54
2018-04-26T00:55:56.412Z,78.83
2018-04-26T00:56:56.406Z,79.30
2018-04-26T00:57:56.402Z,78.92
2018-04-26T00:58:56.400Z,78.73
2018-04-26T00:59:56.393Z,78.35
2018-04-26T01:00:56.385Z,78.92
2018-04-26T01:01:56.381Z,79.40
2018-04-26T01:02:56.379Z,79.30
2018-04-26T01:03:56.378Z,78.83
2018-04-26T01:04:56.370Z,78.83
2018-04-26T01:05:56.369Z,78.54
2018-04-26T01:06:56.356Z,78.83
2018-04-26T01:07:56.357Z,78.73
2018-04-26T01:08:56.344Z,79.02
2018-04-26T01:09:56.351Z,79.21
2018-04-26T01:10:56.339Z,79.11
2018-04-26T01:11:56.333Z,78.92
2018-04-26T01:12:56.323Z,79.02
2018-04-26T01:13:56.318Z,79.40
2018-04-26T01:14:56.318Z,79.49
2018-04-26T01:15:56.313Z,79.40
2018-04-26T01:16:56.307Z,79.49
2018-04-26T01:17:56.298Z,79.78
2018-04-26T01:18:56.293Z,79.78
2018-04-26T01:19:56.307Z,79.11
2018-04-26T01:20:56.283Z,79.97
2018-04-26T01:21:56.277Z,80.35
2018-04-26T01:22:56.273Z,79.59
2018-04-26T01:23:56.270Z,79.21
2018-04-26T01:24:56.262Z,79.30
2018-04-26T01:25:56.259Z,79.59
2018-04-26T01:26:56.253Z,79.49
2018-04-26T01:27:56.248Z,80.16
2018-04-26T01:28:56.246Z,79.97
2018-04-26T01:29:56.241Z,80.44
2018-04-26T01:30:56.232Z,80.26
2018-04-26T01:31:56.227Z,80.92
2018-04-26T01:32:56.225Z,80.83
2018-04-26T01:33:56.220Z,80.64
2018-04-26T01:34:56.212Z,80.64
2018-04-26T01:35:56.208Z,80.83
2018-04-26T01:36:56.203Z,80.83
2018-04-26T01:37:56.197Z,80.83
2018-04-26T01:38:56.191Z,80.73
2018-04-26T01:39:56.187Z,80.73
2018-04-26T01:40:56.180Z,81.59
2018-04-26T01:41:56.177Z,81.59
2018-04-26T01:42:56.176Z,81.59
2018-04-26T01:43:56.170Z,81.30
2018-04-26T01:44:56.162Z,81.88
2018-04-26T01:45:56.156Z,82.26
2018-04-26T01:46:56.161Z,82.07
2018-04-26T01:47:56.151Z,81.97
2018-04-26T01:48:56.140Z,82.17
2018-04-26T01:49:56.136Z,82.17
2018-04-26T01:50:56.131Z,81.68
2018-04-26T01:51:56.127Z,82.35
2018-04-26T01:52:56.121Z,82.35
2018-04-26T01:53:56.121Z,82.45
2018-04-26T01:54:56.112Z,81.88
2018-04-26T01:55:56.106Z,82.17
2018-04-26T01:56:56.101Z,82.26
2018-04-26T01:57:56.095Z,82.07
2018-04-26T01:58:56.091Z,82.35
2018-04-26T01:59:56.087Z,81.68
2018-04-26T02:00:56.085Z,82.35
2018-04-26T02:01:56.080Z,82.45
2018-04-26T02:02:56.070Z,82.26
2018-04-26T02:03:56.066Z,82.64
2018-04-26T02:04:56.064Z,82.83
2018-04-26T02:05:56.059Z,82.73
2018-04-26T02:06:56.050Z,82.35
2018-04-26T02:07:56.046Z,82.26
2018-04-26T02:08:56.040Z,82.35
2018-04-26T02:09:56.036Z,82.35
2018-04-26T02:10:56.033Z,82.92
2018-04-26T02:11:56.032Z,82.64
2018-04-26T02:12:56.023Z,83.21
2018-04-26T02:13:56.021Z,83.21
2018-04-26T02:14:56.012Z,83.02
2018-04-26T02:15:56.010Z,83.21
2018-04-26T02:16:55.998Z,83.02
2018-04-26T02:17:55.994Z,82.92
2018-04-26T02:18:55.989Z,83.21
2018-04-26T02:19:55.984Z,83.12
2018-04-26T02:20:55.979Z,83.40
2018-04-26T02:21:55.977Z,83.31
2018-04-26T02:22:55.969Z,83.31
2018-04-26T02:23:55.964Z,83.31
2018-04-26T02:24:55.963Z,82.73
2018-04-26T02:25:55.957Z,83.12
2018-04-26T02:26:55.953Z,82.83
2018-04-26T02:27:55.947Z,83.02
2018-04-26T02:28:55.937Z,82.83
2018-04-26T02:29:55.933Z,82.92
2018-04-26T02:30:55.941Z,83.12
2018-04-26T02:31:55.927Z,82.73
2018-04-26T02:32:55.919Z,82.73
2018-04-26T02:33:55.913Z,82.26
2018-04-26T02:34:55.908Z,83.12
2018-04-26T02:35:55.903Z,83.59
2018-04-26T02:36:55.898Z,83.02
2018-04-26T02:37:55.894Z,83.78
2018-04-26T02:38:55.891Z,83.59
2018-04-26T02:39:55.888Z,83.97
2018-04-26T02:40:55.878Z,83.97
2018-04-26T02:41:55.871Z,84.26
2018-04-26T02:42:55.865Z,84.16
2018-04-26T02:43:55.860Z,84.36
2018-04-26T02:44:55.860Z,85.31
2018-04-26T02:45:55.855Z,84.83
2018-04-26T02:46:55.846Z,84.45
2018-04-26T02:47:55.841Z,84.26
2018-04-26T02:48:55.836Z,85.12
2018-04-26T02:49:55.830Z,84.74
2018-04-26T02:50:55.825Z,85.12
2018-04-26T02:51:55.820Z,85.12
2018-04-26T02:52:55.813Z,85.31
2018-04-26T02:53:55.808Z,85.60
2018-04-26T02:54:55.805Z,85.21
2018-04-26T02:55:55.798Z,85.69
2018-04-26T02:56:55.796Z,85.69
2018-04-26T02:57:55.792Z,85.69
2018-04-26T02:58:55.786Z,85.21
2018-04-26T02:59:55.782Z,85.50
2018-04-26T03:00:55.773Z,85.31
2018-04-26T03:01:55.767Z,85.50
2018-04-26T03:02:55.762Z,85.50
2018-04-26T03:03:55.762Z,85.50
2018-04-26T03:04:55.751Z,85.60
2018-04-26T03:05:55.748Z,85.88
2018-04-26T03:06:55.743Z,85.97
2018-04-26T03:07:55.737Z,85.88
2018-04-26T03:08:55.730Z,86.16
2018-04-26T03:09:55.725Z,86.07
2018-04-26T03:10:55.725Z,85.88
2018-04-26T03:11:55.720Z,85.78
2018-04-26T03:12:55.710Z,85.78
2018-04-26T03:13:55.705Z,86.45
2018-04-26T03:14:55.702Z,86.74
2018-04-26T03:15:55.695Z,86.65
2018-04-26T03:16:55.689Z,86.55
2018-04-26T03:17:55.684Z,86.55
2018-04-26T03:18:55.685Z,86.26
2018-04-26T03:19:55.682Z,86.36
2018-04-26T03:20:55.669Z,86.45
2018-04-26T03:21:55.664Z,86.65
2018-04-26T03:22:55.664Z,86.26
2018-04-26T03:23:55.658Z,85.88
2018-04-26T03:24:55.650Z,86.07
2018-04-26T03:25:55.643Z,85.97
2018-04-26T03:26:55.638Z,86.07
2018-04-26T03:27:55.700Z,85.69
2018-04-26T03:28:55.627Z,86.26
2018-04-26T03:29:55.623Z,86.07
2018-04-26T03:30:55.689Z,86.07
2018-04-26T03:31:55.615Z,86.65
2018-04-26T03:32:55.609Z,86.07
2018-04-26T03:33:55.603Z,86.55
2018-04-26T03:34:55.597Z,86.65
2018-04-26T03:35:55.594Z,86.55
2018-04-26T03:36:55.590Z,86.45
2018-04-26T03:37:55.586Z,86.45
2018-04-26T03:38:55.576Z,86.26
2018-04-26T03:39:55.572Z,86.26
2018-04-26T03:40:55.575Z,86.26
2018-04-26T03:41:55.566Z,86.55
2018-04-26T03:42:55.630Z,86.45
2018-04-26T03:43:55.553Z,86.65
2018-04-26T03:44:55.546Z,86.26
2018-04-26T03:45:55.543Z,86.26
2018-04-26T03:46:55.537Z,86.65
2018-04-26T03:47:55.532Z,86.55
2018-04-26T03:48:55.527Z,86.74
2018-04-26T03:49:55.521Z,87.21
2018-04-26T03:50:55.521Z,86.93
2018-04-26T03:51:55.516Z,87.12
2018-04-26T03:52:55.506Z,87.60
2018-04-26T03:53:55.502Z,87.40
2018-04-26T03:54:55.500Z,87.02
2018-04-26T03:55:55.495Z,86.74
2018-04-26T03:56:55.487Z,86.83
2018-04-26T03:57:55.481Z,87.88
2018-04-26T03:58:55.475Z,87.98
2018-04-26T03:59:55.471Z,87.69
2018-04-26T04:00:55.466Z,87.50
2018-04-26T04:01:55.461Z,87.40
2018-04-26T04:02:55.456Z,87.50
2018-04-26T04:03:55.450Z,87.50
2018-04-26T04:04:55.446Z,87.69
2018-04-26T04:05:55.439Z,87.50
2018-04-26T04:06:55.434Z,87.60
2018-04-26T04:07:55.429Z,87.31
2018-04-26T04:08:55.427Z,87.40
2018-04-26T04:09:55.423Z,87.50
2018-04-26T04:10:55.415Z,87.60
2018-04-26T04:11:55.409Z,87.69
2018-04-26T04:12:55.407Z,87.88
2018-04-26T04:13:55.530Z,87.40
2018-04-26T04:14:55.394Z,87.60
2018-04-26T04:15:55.388Z,87.40
2018-04-26T04:16:55.382Z,87.60
2018-04-26T04:17:55.379Z,87.98
2018-04-26T04:18:55.388Z,86.93
2018-04-26T04:19:55.369Z,87.12
2018-04-26T04:20:55.360Z,86.74
2018-04-26T04:21:55.355Z,88.07
2018-04-26T04:22:55.356Z,87.50
2018-04-26T04:23:55.351Z,87.50
2018-04-26T04:24:55.339Z,87.21
2018-04-26T04:25:55.334Z,87.50
2018-04-26T04:26:55.333Z,87.50
2018-04-26T04:27:55.399Z,87.88
2018-04-26T04:28:55.318Z,87.60
2018-04-26T04:29:55.314Z,87.40
2018-04-26T04:30:55.313Z,87.50
2018-04-26T04:31:55.304Z,87.50
2018-04-26T04:32:55.299Z,86.93
2018-04-26T04:33:55.294Z,87.79
2018-04-26T04:34:55.288Z,87.31
2018-04-26T04:35:55.288Z,86.93
2018-04-26T04:36:55.278Z,86.65
2018-04-26T04:37:55.272Z,86.83
2018-04-26T04:38:55.268Z,86.83
2018-04-26T04:39:55.263Z,86.83
2018-04-26T04:40:55.260Z,87.12
2018-04-26T04:41:55.256Z,87.21
2018-04-26T04:42:55.247Z,87.31
2018-04-26T04:43:55.241Z,86.65
2018-04-26T04:44:55.241Z,86.26
2018-04-26T04:45:55.235Z,86.45
2018-04-26T04:46:55.226Z,86.36
2018-04-26T04:47:55.221Z,86.65
2018-04-26T04:48:55.279Z,86.74
2018-04-26T04:49:55.213Z,86.65
2018-04-26T04:50:55.279Z,86.36
2018-04-26T04:51:55.201Z,86.36
2018-04-26T04:52:55.196Z,86.45
2018-04-26T04:53:55.190Z,85.78
2018-04-26T04:54:55.192Z,85.78
2018-04-26T04:55:55.185Z,85.97
2018-04-26T04:56:55.175Z,85.97
2018-04-26T04:57:55.169Z,86.16
2018-04-26T04:58:55.169Z,85.60
2018-04-26T04:59:55.164Z,85.50
2018-04-26T05:00:55.153Z,85.31
2018-04-26T05:01:55.198Z,85.97
2018-04-26T05:02:55.144Z,85.88
2018-04-26T05:03:55.142Z,85.50
2018-04-26T05:04:55.134Z,85.31
2018-04-26T05:05:55.128Z,85.50
2018-04-26T05:06:55.126Z,85.50
2018-04-26T05:07:55.118Z,86.16
2018-04-26T05:08:55.113Z,85.69
2018-04-26T05:09:55.109Z,85.69
2018-04-26T05:10:55.103Z,85.97
2018-04-26T05:11:55.098Z,86.55
2018-04-26T05:12:55.096Z,87.21
2018-04-26T05:13:55.156Z,87.88
2018-04-26T05:14:55.083Z,88.36
2018-04-26T05:15:55.078Z,88.55
2018-04-26T05:16:55.076Z,88.84
2018-04-26T05:17:55.071Z,89.60
2018-04-26T05:18:55.064Z,91.31
2018-04-26T05:19:55.058Z,91.60
2018-04-26T05:20:55.053Z,91.69
2018-04-26T05:21:55.047Z,91.79
2018-04-26T05:22:55.045Z,92.27
2018-04-26T05:23:55.037Z,93.51
2018-04-26T05:24:55.036Z,93.37
2018-04-26T05:25:55.031Z,93.55
2018-04-26T05:26:55.022Z,93.65
2018-04-26T05:27:55.018Z,94.13
2018-04-26T05:28:55.015Z,95.27
2018-04-26T05:29:55.026Z,95.17
2018-04-26T05:30:55.002Z,95.27
2018-04-26T05:31:54.996Z,95.94
2018-04-26T05:32:54.991Z,95.84
2018-04-26T05:33:54.985Z,95.56
2018-04-26T05:34:54.980Z,95.94
2018-04-26T05:35:54.975Z,95.84
2018-04-26T05:36:54.973Z,95.94
2018-04-26T05:37:54.967Z,95.27
2018-04-26T05:38:54.969Z,95.27
2018-04-26T05:39:54.958Z,95.46
2018-04-26T05:40:54.953Z,95.46
2018-04-26T05:41:54.943Z,95.36
2018-04-26T05:42:54.942Z,95.17
2018-04-26T05:43:54.934Z,95.36
2018-04-26T05:44:54.928Z,95.84
2018-04-26T05:45:54.926Z,96.12
2018-04-26T05:46:54.918Z,95.94
2018-04-26T05:47:54.913Z,95.75
2018-04-26T05:48:54.907Z,95.98
2018-04-26T05:49:54.901Z,95.46
2018-04-26T05:50:54.901Z,93.84
2018-04-26T05:51:54.896Z,92.69
2018-04-26T05:52:54.887Z,91.94
2018-04-26T05:53:54.882Z,92.22
2018-04-26T05:54:54.882Z,91.08
2018-04-26T05:55:54.961Z,91.60
2018-04-26T05:56:54.870Z,91.60
2018-04-26T05:57:54.865Z,92.36
2018-04-26T05:58:54.856Z,91.70
2018-04-26T05:59:54.851Z,92.94
2018-04-26T06:00:54.848Z,93.03
2018-04-26T06:01:54.841Z,93.74
2018-04-26T06:02:54.839Z,94.98
2018-04-26T06:03:54.829Z,95.84
2018-04-26T06:04:54.826Z,96.79
2018-04-26T06:05:54.824Z,97.08
2018-04-26T06:06:54.821Z,98.22
2018-04-26T06:07:54.808Z,98.41
2018-04-26T06:08:54.804Z,99.08
2018-04-26T06:09:54.799Z,99.46
2018-04-26T06:10:54.793Z,99.12
2018-04-26T06:11:54.788Z,99.60
2018-04-26T06:12:54.783Z,99.99
2018-04-26T06:13:54.771Z,99.99
2018-04-26T06:14:54.767Z,99.99
2018-04-26T06:15:54.761Z,99.99
2018-04-26T06:16:54.847Z,99.99
2018-04-26T06:17:54.747Z,99.99
2018-04-26T06:18:54.743Z,99.99
2018-04-26T06:19:54.737Z,99.99
2018-04-26T06:20:54.730Z,99.99
2018-04-26T06:21:54.725Z,99.99
2018-04-26T06:22:54.728Z,99.99
2018-04-26T06:23:54.716Z,99.99
2018-04-26T06:24:54.705Z,99.99
2018-04-26T06:25:54.700Z,99.99
2018-04-26T06:26:54.695Z,99.99
2018-04-26T06:27:54.689Z,99.99
2018-04-26T06:28:54.681Z,99.99
2018-04-26T06:29:54.676Z,99.99
2018-04-26T06:30:54.675Z,99.99
2018-04-26T06:31:54.668Z,99.99
2018-04-26T06:32:54.657Z,99.99
2018-04-26T06:33:54.651Z,99.99
2018-04-26T06:34:54.650Z,99.99
2018-04-26T06:35:54.644Z,99.99
2018-04-26T06:36:54.664Z,99.99
2018-04-26T06:37:54.628Z,99.99
2018-04-26T06:38:54.623Z,99.99
2018-04-26T06:39:54.630Z,99.99
2018-04-26T06:40:54.613Z,99.99
2018-04-26T06:41:54.611Z,99.99
2018-04-26T06:42:54.602Z,99.99
2018-04-26T06:43:54.600Z,99.99
2018-04-26T06:44:54.590Z,99.99
2018-04-26T06:45:54.585Z,99.99
2018-04-26T06:46:54.580Z,99.99
2018-04-26T06:47:54.643Z,99.99
2018-04-26T06:48:54.573Z,99.99
2018-04-26T06:49:54.644Z,99.99
2018-04-26T06:50:54.561Z,99.99
2018-04-26T06:51:54.556Z,99.99
2018-04-26T06:52:54.554Z,99.99
2018-04-26T06:53:54.551Z,99.99
2018-04-26T06:54:54.541Z,99.99
2018-04-26T06:55:54.536Z,99.99
2018-04-26T06:56:54.533Z,99.99
2018-04-26T06:57:54.525Z,99.99
2018-04-26T06:58:54.520Z,99.99
2018-04-26T06:59:54.516Z,99.99
2018-04-26T07:00:54.511Z,99.99
2018-04-26T07:01:54.507Z,99.99
2018-04-26T07:02:54.506Z,99.99
2018-04-26T07:03:54.505Z,99.99
2018-04-26T07:04:54.492Z,99.99
2018-04-26T07:05:54.563Z,99.99
2018-04-26T07:06:54.487Z,99.99
2018-04-26T07:07:54.483Z,99.99
2018-04-26T07:08:54.474Z,99.99
2018-04-26T07:09:54.470Z,99.99
2018-04-26T07:10:54.465Z,99.99
2018-04-26T07:11:54.462Z,99.99
2018-04-26T07:12:54.455Z,99.99
2018-04-26T07:13:54.451Z,99.99
2018-04-26T07:14:54.446Z,99.99
2018-04-26T07:15:54.441Z,99.99
2018-04-26T07:16:54.436Z,99.99
2018-04-26T07:17:54.432Z,99.99
2018-04-26T07:18:54.427Z,99.99
2018-04-26T07:19:54.427Z,99.99
2018-04-26T07:20:54.422Z,99.99
2018-04-26T07:21:54.464Z,99.99
2018-04-26T07:22:54.407Z,99.99
2018-04-26T07:23:54.403Z,99.99
2018-04-26T07:24:54.403Z,99.99
2018-04-26T07:25:54.400Z,99.99
2018-04-26T07:26:54.389Z,99.99
2018-04-26T07:27:54.385Z,99.99
2018-04-26T07:28:54.381Z,99.99
2018-04-26T07:29:54.375Z,99.99
2018-04-26T07:30:54.370Z,99.85
2018-04-26T07:31:54.370Z,97.04
2018-04-26T07:32:54.365Z,95.41
2018-04-26T07:33:54.363Z,93.69
2018-04-26T07:34:54.383Z,92.54
2018-04-26T07:35:54.352Z,91.59
2018-04-26T07:36:54.348Z,91.30
2018-04-26T07:37:54.346Z,90.06
2018-04-26T07:38:54.344Z,90.01
2018-04-26T07:39:54.341Z,88.66
2018-04-26T07:40:54.338Z,86.50
2018-04-26T07:41:54.336Z,85.58
2018-04-26T07:42:54.335Z,83.95
2018-04-26T07:43:54.334Z,81.89
2018-04-26T07:44:54.335Z,81.89
2018-04-26T07:45:54.335Z,80.60
2018-04-26T07:46:54.334Z,80.51
2018-04-26T07:47:54.334Z,81.02
2018-04-26T07:48:54.332Z,81.41
2018-04-26T07:49:54.328Z,80.74
2018-04-26T07:50:54.328Z,80.26
2018-04-26T07:51:54.328Z,80.07
2018-04-26T07:52:54.328Z,79.11
2018-04-26T07:53:54.328Z,78.69
2018-04-26T07:54:54.328Z,78.59
2018-04-26T07:55:54.329Z,78.84
2018-04-26T07:56:54.329Z,79.51
2018-04-26T07:57:54.329Z,79.37
2018-04-26T07:58:54.337Z,79.85
2018-04-26T07:59:54.334Z,80.48
2018-04-26T08:00:54.335Z,81.10
2018-04-26T08:01:54.331Z,81.37
2018-04-26T08:02:54.331Z,80.07
2018-04-26T08:03:54.336Z,78.97
2018-04-26T08:04:54.335Z,78.40
2018-04-26T08:05:54.336Z,78.27
2018-04-26T08:06:54.335Z,78.84
2018-04-26T08:07:54.335Z,78.51
2018-04-26T08:08:54.333Z,78.32
2018-04-26T08:09:54.334Z,79.28
2018-04-26T08:10:54.335Z,79.72
2018-04-26T08:11:54.337Z,79.95
2018-04-26T08:12:54.336Z,78.89
2018-04-26T08:13:54.336Z,79.37
2018-04-26T08:14:54.337Z,78.57
2018-04-26T08:15:54.337Z,75.49
2018-04-26T08:16:54.341Z,71.36
2018-04-26T08:17:54.343Z,70.43
2018-04-26T08:18:54.344Z,67.83
2018-04-26T08:19:54.346Z,67.61
2018-04-26T08:20:54.343Z,66.97
2018-04-26T08:21:54.346Z,67.64
2018-04-26T08:22:54.348Z,67.41
2018-04-26T08:23:54.350Z,68.57
2018-04-26T08:24:54.374Z,68.53
2018-04-26T08:25:54.356Z,68.91
2018-04-26T08:26:54.357Z,70.32
2018-04-26T08:27:54.359Z,71.15
2018-04-26T08:28:54.361Z,71.69
2018-04-26T08:29:54.365Z,72.77
2018-04-26T08:30:54.370Z,75.45
2018-04-26T08:31:54.376Z,76.94
2018-04-26T08:32:54.369Z,78.34
2018-04-26T08:33:54.371Z,79.00
2018-04-26T08:34:54.373Z,80.50
2018-04-26T08:35:54.374Z,81.36
2018-04-26T08:36:54.386Z,82.41
2018-04-26T08:37:54.379Z,82.98
2018-04-26T08:38:54.379Z,83.17
2018-04-26T08:39:54.386Z,83.03
2018-04-26T08:40:54.376Z,82.75
2018-04-26T08:41:54.376Z,79.27
2018-04-26T08:42:54.381Z,74.71
2018-04-26T08:43:54.383Z,70.54
2018-04-26T08:44:54.380Z,68.16
2018-04-26T08:45:54.380Z,67.81
2018-04-26T08:46:54.384Z,66.14
2018-04-26T08:47:54.387Z,63.63
2018-04-26T08:48:54.389Z,61.66
2018-04-26T08:49:54.392Z,59.03
2018-04-26T08:50:54.400Z,56.18
2018-04-26T08:51:54.402Z,54.10
2018-04-26T08:52:54.412Z,52.82
2018-04-26T08:53:54.412Z,49.95
2018-04-26T08:54:54.420Z,47.83
2018-04-26T08:55:54.427Z,46.34
2018-04-26T08:56:54.442Z,44.29
2018-04-26T08:57:54.446Z,42.94
2018-04-26T08:58:54.451Z,42.29
2018-04-26T08:59:54.460Z,43.52
2018-04-26T09:00:54.473Z,43.43
2018-04-26T09:01:54.483Z,42.38
2018-04-26T09:02:54.492Z,42.14
2018-04-26T09:03:54.502Z,42.04
2018-04-26T09:04:54.512Z,41.26
2018-04-26T09:05:54.526Z,40.80
2018-04-26T09:06:54.538Z,40.33
2018-04-26T09:07:54.550Z,39.90
2018-04-26T09:08:54.563Z,39.88
2018-04-26T09:09:54.575Z,40.25
2018-04-26T09:10:54.593Z,40.78
2018-04-26T09:11:54.607Z,40.45
2018-04-26T09:12:54.615Z,40.03
2018-04-26T09:13:54.632Z,39.82
2018-04-26T09:14:54.648Z,40.06
2018-04-26T09:15:54.737Z,38.69
2018-04-26T09:16:54.672Z,38.32
2018-04-26T09:17:54.688Z,38.40
2018-04-26T09:18:54.701Z,37.29
2018-04-26T09:19:54.717Z,36.92
2018-04-26T09:20:54.730Z,36.96
2018-04-26T09:21:54.800Z,38.34
2018-04-26T09:22:54.761Z,40.48
2018-04-26T09:23:54.775Z,42.35
2018-04-26T09:24:54.789Z,43.31
2018-04-26T09:25:54.805Z,45.89
2018-04-26T09:26:54.818Z,47.16
2018-04-26T09:27:54.835Z,47.19
2018-04-26T09:28:54.848Z,46.04
2018-04-26T09:29:54.861Z,44.85
2018-04-26T09:30:54.870Z,43.55
2018-04-26T09:31:54.884Z,42.43
2018-04-26T09:32:54.900Z,40.48
2018-04-26T09:33:54.913Z,40.13
2018-04-26T09:34:54.922Z,40.26
2018-04-26T09:35:54.936Z,41.45
2018-04-26T09:36:54.949Z,41.26
2018-04-26T09:37:54.963Z,40.77
2018-04-26T09:38:54.978Z,40.85
2018-04-26T09:39:54.990Z,40.92
2018-04-26T09:40:55.007Z,40.17
2018-04-26T09:41:55.021Z,40.40
2018-04-26T09:42:55.032Z,41.24
2018-04-26T09:43:55.044Z,42.07
2018-04-26T09:44:55.057Z,41.86
2018-04-26T09:45:55.070Z,40.83
2018-04-26T09:46:55.085Z,39.43
2018-04-26T09:47:55.098Z,39.29
2018-04-26T09:48:55.109Z,39.84
2018-04-26T09:49:55.123Z,39.14
2018-04-26T09:50:55.137Z,39.08
2018-04-26T09:51:55.151Z,39.72
2018-04-26T09:52:55.167Z,40.75
2018-04-26T09:53:55.181Z,41.17
2018-04-26T09:54:55.195Z,41.72
2018-04-26T09:55:55.207Z,42.28
2018-04-26T09:56:55.215Z,42.60
2018-04-26T09:57:55.227Z,43.47
2018-04-26T09:58:55.241Z,44.87
2018-04-26T09:59:55.254Z,45.75
2018-04-26T10:00:55.263Z,46.56
2018-04-26T10:01:55.275Z,46.15
2018-04-26T10:02:55.285Z,44.16
2018-04-26T10:03:55.297Z,43.87
2018-04-26T10:04:55.306Z,42.57
2018-04-26T10:05:55.319Z,42.17
2018-04-26T10:06:55.333Z,42.34
2018-04-26T10:07:55.343Z,42.30
2018-04-26T10:08:55.369Z,41.85
2018-04-26T10:09:55.359Z,42.48
2018-04-26T10:10:55.371Z,43.21
2018-04-26T10:11:55.381Z,44.83
2018-04-26T10:12:55.397Z,46.55
2018-04-26T10:13:55.405Z,47.89
2018-04-26T10:14:55.409Z,48.54
2018-04-26T10:15:55.418Z,48.93
2018-04-26T10:16:55.463Z,48.97
2018-04-26T10:17:55.440Z,48.11
2018-04-26T10:18:55.444Z,47.24
2018-04-26T10:19:55.453Z,44.81
2018-04-26T10:20:55.459Z,44.96
2018-04-26T10:21:55.472Z,43.76
2018-04-26T10:22:55.475Z,44.39
2018-04-26T10:23:55.484Z,44.52
2018-04-26T10:24:55.517Z,46.42
2018-04-26T10:25:55.507Z,47.49
2018-04-26T10:26:55.512Z,48.44
2018-04-26T10:27:55.520Z,47.94
2018-04-26T10:28:55.525Z,47.63
2018-04-26T10:29:55.573Z,47.67
2018-04-26T10:30:55.540Z,46.15
2018-04-26T10:31:55.546Z,44.57
2018-04-26T10:32:55.554Z,44.73
2018-04-26T10:33:55.563Z,45.33
2018-04-26T10:34:55.569Z,45.21
2018-04-26T10:35:55.578Z,44.82
2018-04-26T10:36:55.586Z,44.56
2018-04-26T10:37:55.593Z,43.98
2018-04-26T10:38:55.605Z,44.82
2018-04-26T10:39:55.618Z,44.97
2018-04-26T10:40:55.616Z,46.08
2018-04-26T10:41:55.623Z,46.11
2018-04-26T10:42:55.632Z,46.03
2018-04-26T10:43:55.639Z,46.11
2018-04-26T10:44:55.646Z,45.58
2018-04-26T10:45:55.652Z,46.08
2018-04-26T10:46:55.665Z,45.86
2018-04-26T10:47:55.671Z,45.07
2018-04-26T10:48:55.676Z,44.45
2018-04-26T10:49:55.680Z,44.97
2018-04-26T10:50:55.692Z,44.90
2018-04-26T10:51:55.701Z,44.78
2018-04-26T10:52:55.767Z,45.26
2018-04-26T10:53:55.708Z,44.85
2018-04-26T10:54:55.715Z,45.24
2018-04-26T10:55:55.801Z,46.08
2018-04-26T10:56:55.729Z,45.92
2018-04-26T10:57:55.735Z,45.34
2018-04-26T10:58:55.745Z,44.70
2018-04-26T10:59:55.749Z,44.06
2018-04-26T11:00:55.761Z,44.49
2018-04-26T11:01:55.764Z,44.90
2018-04-26T11:02:55.770Z,45.31
2018-04-26T11:03:55.777Z,45.58
2018-04-26T11:04:55.801Z,45.58
2018-04-26T11:05:55.794Z,45.84
2018-04-26T11:06:55.798Z,45.73
2018-04-26T11:07:55.804Z,46.09
2018-04-26T11:08:55.818Z,46.45
2018-04-26T11:09:55.822Z,47.10
2018-04-26T11:10:55.825Z,48.45
2018-04-26T11:11:55.831Z,49.51
2018-04-26T11:12:55.841Z,50.37
2018-04-26T11:13:55.842Z,50.85
2018-04-26T11:14:55.849Z,51.04
2018-04-26T11:15:55.855Z,51.23
2018-04-26T11:16:55.859Z,51.33
2018-04-26T11:17:55.865Z,51.81
2018-04-26T11:18:55.877Z,51.72
2018-04-26T11:19:55.879Z,51.33
2018-04-26T11:20:55.880Z,51.53
2018-04-26T11:21:55.885Z,52.03
2018-04-26T11:22:55.897Z,51.04
2018-04-26T11:23:55.900Z,51.62
2018-04-26T11:24:55.899Z,51.91
2018-04-26T11:25:55.915Z,52.00
2018-04-26T11:26:55.909Z,52.00
2018-04-26T11:27:55.915Z,52.10
2018-04-26T11:28:55.917Z,51.86
2018-04-26T11:29:55.922Z,51.76
2018-04-26T11:30:55.991Z,52.48
2018-04-26T11:31:55.930Z,53.82
2018-04-26T11:32:55.936Z,54.01
2018-04-26T11:33:55.940Z,53.99
2018-04-26T11:34:55.940Z,54.46
2018-04-26T11:35:55.945Z,54.17
2018-04-26T11:36:55.951Z,54.34
2018-04-26T11:37:55.955Z,55.33
2018-04-26T11:38:55.959Z,55.52
2018-04-26T11:39:55.958Z,56.19
2018-04-26T11:40:55.963Z,56.00
2018-04-26T11:41:56.011Z,56.29
2018-04-26T11:42:55.967Z,56.29
2018-04-26T11:43:55.968Z,56.89
2018-04-26T11:44:55.972Z,56.24
2018-04-26T11:45:55.973Z,55.89
2018-04-26T11:46:55.976Z,55.99
2018-04-26T11:47:55.978Z,55.91
2018-04-26T11:48:55.989Z,54.77
2018-04-26T11:49:55.987Z,54.41
2018-04-26T11:50:55.986Z,54.24
2018-04-26T11:51:55.992Z,53.86
2018-04-26T11:52:55.991Z,53.21
2018-04-26T11:53:55.995Z,53.40
2018-04-26T11:54:55.996Z,52.73
2018-04-26T11:55:55.999Z,52.44
2018-04-26T11:56:56.001Z,52.12
2018-04-26T11:57:56.005Z,50.78
2018-04-26T11:58:56.007Z,51.33
2018-04-26T11:59:56.010Z,50.37
2018-04-26T12:00:56.017Z,50.95
2018-04-26T12:01:56.021Z,50.27
2018-04-26T12:02:56.026Z,49.87
2018-04-26T12:03:56.025Z,50.15
2018-04-26T12:04:56.027Z,50.05
2018-04-26T12:05:56.027Z,50.92
2018-04-26T12:06:56.029Z,50.05
2018-04-26T12:07:56.035Z,50.54
2018-04-26T12:08:56.034Z,50.25
2018-04-26T12:09:56.037Z,51.02
2018-04-26T12:10:56.041Z,50.92
2018-04-26T12:11:56.044Z,50.85
2018-04-26T12:12:56.047Z,51.14
2018-04-26T12:13:56.048Z,50.46
2018-04-26T12:14:56.055Z,50.87
2018-04-26T12:15:56.058Z,50.08
2018-04-26T12:16:56.056Z,49.77
2018-04-26T12:17:56.059Z,49.87
2018-04-26T12:18:56.061Z,49.67
2018-04-26T12:19:56.064Z,49.77
2018-04-26T12:20:56.073Z,50.34
2018-04-26T12:21:56.074Z,49.74
2018-04-26T12:22:56.072Z,50.23
2018-04-26T12:23:56.117Z,50.03
2018-04-26T12:24:56.081Z,50.03
2018-04-26T12:25:56.081Z,50.03
2018-04-26T12:26:56.083Z,49.93
2018-04-26T12:27:56.085Z,50.03
2018-04-26T12:28:56.087Z,50.80
2018-04-26T12:29:56.092Z,51.09
2018-04-26T12:30:56.095Z,51.09
2018-04-26T12:31:56.094Z,51.09
2018-04-26T12:32:56.099Z,50.23
2018-04-26T12:33:56.103Z,50.63
2018-04-26T12:34:56.104Z,50.23
2018-04-26T12:35:56.107Z,49.93
2018-04-26T12:36:56.104Z,49.77
2018-04-26T12:37:56.107Z,49.77
2018-04-26T12:38:56.111Z,50.08
2018-04-26T12:39:56.121Z,49.79
2018-04-26T12:40:56.113Z,49.51
2018-04-26T12:41:56.123Z,48.93
2018-04-26T12:42:56.118Z,48.45
2018-04-26T12:43:56.120Z,49.02
2018-04-26T12:44:56.122Z,49.02
2018-04-26T12:45:56.125Z,48.13
2018-04-26T12:46:56.130Z,48.02
2018-04-26T12:47:56.133Z,48.11
2018-04-26T12:48:56.132Z,48.49
2018-04-26T12:49:56.135Z,49.46
2018-04-26T12:50:56.135Z,50.03
2018-04-26T12:51:56.138Z,50.32
2018-04-26T12:52:56.143Z,50.80